sensor_id;sensor_type;location;lat;lon;timestamp;P1;durP1;ratioP1;P2;durP2;ratioP2
77246;SDS011;66279;42.820;23.374;2023-04-24T00:00:40;6.68;;;3.25;;
77246;SDS011;66279;42.820;23.374;2023-04-24T00:03:06;4.93;;;3.28;;
77246;SDS011;66279;42.820;23.374;2023-04-24T00:05:32;4.80;;;3.03;;
77246;SDS011;66279;42.820;23.374;2023-04-24T00:07:58;4.95;;;2.80;;
77246;SDS011;66279;42.820;23.374;2023-04-24T00:10:23;5.82;;;3.28;;
77246;SDS011;66279;42.820;23.374;2023-04-24T00:12:49;3.67;;;2.10;;
77246;SDS011;66279;42.820;23.374;2023-04-24T00:15:14;4.32;;;2.20;;
77246;SDS011;66279;42.820;23.374;2023-04-24T00:17:40;3.30;;;2.40;;
77246;SDS011;66279;42.820;23.374;2023-04-24T00:20:05;2.60;;;2.28;;
77246;SDS011;66279;42.820;23.374;2023-04-24T00:22:32;3.30;;;2.25;;
77246;SDS011;66279;42.820;23.374;2023-04-24T00:24:57;4.03;;;2.05;;
77246;SDS011;66279;42.820;23.374;2023-04-24T00:27:23;2.75;;;2.30;;
77246;SDS011;66279;42.820;23.374;2023-04-24T00:29:48;3.97;;;2.60;;
77246;SDS011;66279;42.820;23.374;2023-04-24T00:32:14;3.40;;;2.67;;
77246;SDS011;66279;42.820;23.374;2023-04-24T00:34:40;3.05;;;2.13;;
77246;SDS011;66279;42.820;23.374;2023-04-24T00:37:06;2.80;;;2.25;;
77246;SDS011;66279;42.820;23.374;2023-04-24T00:39:32;3.72;;;2.35;;
77246;SDS011;66279;42.820;23.374;2023-04-24T00:41:58;3.08;;;2.15;;
77246;SDS011;66279;42.820;23.374;2023-04-24T00:44:24;8.73;;;2.60;;
77246;SDS011;66279;42.820;23.374;2023-04-24T00:46:49;6.55;;;3.30;;
77246;SDS011;66279;42.820;23.374;2023-04-24T00:49:19;3.45;;;2.80;;
77246;SDS011;66279;42.820;23.374;2023-04-24T00:51:47;7.75;;;2.70;;
77246;SDS011;66279;42.820;23.374;2023-04-24T00:54:14;2.97;;;2.08;;
77246;SDS011;66279;42.820;23.374;2023-04-24T00:56:41;3.25;;;2.55;;
77246;SDS011;66279;42.820;23.374;2023-04-24T00:59:07;3.72;;;2.83;;
77246;SDS011;66279;42.820;23.374;2023-04-24T01:01:33;4.05;;;2.47;;
77246;SDS011;66279;42.820;23.374;2023-04-24T01:03:59;3.80;;;2.38;;
77246;SDS011;66279;42.820;23.374;2023-04-24T01:06:27;3.60;;;2.53;;
77246;SDS011;66279;42.820;23.374;2023-04-24T01:08:53;5.03;;;3.28;;
77246;SDS011;66279;42.820;23.374;2023-04-24T01:11:20;4.03;;;3.03;;
77246;SDS011;66279;42.820;23.374;2023-04-24T01:13:47;3.80;;;2.60;;
77246;SDS011;66279;42.820;23.374;2023-04-24T01:16:16;2.45;;;2.13;;
77246;SDS011;66279;42.820;23.374;2023-04-24T01:18:43;2.85;;;2.13;;
77246;SDS011;66279;42.820;23.374;2023-04-24T01:21:09;4.40;;;2.95;;
77246;SDS011;66279;42.820;23.374;2023-04-24T01:23:36;3.17;;;2.22;;
77246;SDS011;66279;42.820;23.374;2023-04-24T01:26:02;2.95;;;2.10;;
77246;SDS011;66279;42.820;23.374;2023-04-24T01:28:27;3.78;;;2.33;;
77246;SDS011;66279;42.820;23.374;2023-04-24T01:30:53;2.75;;;2.42;;
77246;SDS011;66279;42.820;23.374;2023-04-24T01:33:19;5.28;;;2.75;;
77246;SDS011;66279;42.820;23.374;2023-04-24T01:35:46;3.95;;;2.30;;
77246;SDS011;66279;42.820;23.374;2023-04-24T01:38:13;3.03;;;2.33;;
77246;SDS011;66279;42.820;23.374;2023-04-24T01:40:38;5.13;;;2.47;;
77246;SDS011;66279;42.820;23.374;2023-04-24T01:43:04;4.00;;;2.70;;
77246;SDS011;66279;42.820;23.374;2023-04-24T01:45:30;3.85;;;2.80;;
77246;SDS011;66279;42.820;23.374;2023-04-24T01:47:56;3.90;;;2.72;;
77246;SDS011;66279;42.820;23.374;2023-04-24T01:50:21;4.85;;;2.75;;
77246;SDS011;66279;42.820;23.374;2023-04-24T01:52:47;2.83;;;2.38;;
77246;SDS011;66279;42.820;23.374;2023-04-24T01:55:13;4.80;;;3.17;;
77246;SDS011;66279;42.820;23.374;2023-04-24T01:57:38;3.03;;;2.45;;
77246;SDS011;66279;42.820;23.374;2023-04-24T02:00:05;3.42;;;2.60;;
77246;SDS011;66279;42.820;23.374;2023-04-24T02:02:32;3.88;;;2.58;;
77246;SDS011;66279;42.820;23.374;2023-04-24T02:04:57;5.40;;;2.75;;
77246;SDS011;66279;42.820;23.374;2023-04-24T02:07:23;3.95;;;3.03;;
77246;SDS011;66279;42.820;23.374;2023-04-24T02:09:49;4.25;;;2.83;;
77246;SDS011;66279;42.820;23.374;2023-04-24T02:12:15;3.25;;;2.72;;
77246;SDS011;66279;42.820;23.374;2023-04-24T02:14:42;5.82;;;2.90;;
77246;SDS011;66279;42.820;23.374;2023-04-24T02:17:08;4.30;;;2.53;;
77246;SDS011;66279;42.820;23.374;2023-04-24T02:19:34;3.85;;;2.88;;
77246;SDS011;66279;42.820;23.374;2023-04-24T02:22:00;3.38;;;2.38;;
77246;SDS011;66279;42.820;23.374;2023-04-24T02:24:25;3.42;;;2.72;;
77246;SDS011;66279;42.820;23.374;2023-04-24T02:26:51;4.43;;;2.70;;
77246;SDS011;66279;42.820;23.374;2023-04-24T02:29:17;4.28;;;3.33;;
77246;SDS011;66279;42.820;23.374;2023-04-24T02:31:42;4.60;;;2.47;;
77246;SDS011;66279;42.820;23.374;2023-04-24T02:34:08;4.93;;;3.45;;
77246;SDS011;66279;42.820;23.374;2023-04-24T02:36:34;5.45;;;3.05;;
77246;SDS011;66279;42.820;23.374;2023-04-24T02:38:59;4.25;;;2.97;;
77246;SDS011;66279;42.820;23.374;2023-04-24T02:41:26;3.35;;;2.72;;
77246;SDS011;66279;42.820;23.374;2023-04-24T02:43:56;3.92;;;2.78;;
77246;SDS011;66279;42.820;23.374;2023-04-24T02:46:22;2.95;;;2.65;;
77246;SDS011;66279;42.820;23.374;2023-04-24T02:48:48;2.83;;;2.35;;
77246;SDS011;66279;42.820;23.374;2023-04-24T02:51:14;3.00;;;2.42;;
77246;SDS011;66279;42.820;23.374;2023-04-24T02:53:39;4.72;;;3.08;;
77246;SDS011;66279;42.820;23.374;2023-04-24T02:56:05;6.15;;;3.25;;
77246;SDS011;66279;42.820;23.374;2023-04-24T02:58:30;3.90;;;2.97;;
77246;SDS011;66279;42.820;23.374;2023-04-24T03:00:56;4.80;;;2.97;;
77246;SDS011;66279;42.820;23.374;2023-04-24T03:03:21;3.28;;;2.70;;
77246;SDS011;66279;42.820;23.374;2023-04-24T03:05:47;4.28;;;3.08;;
77246;SDS011;66279;42.820;23.374;2023-04-24T03:08:13;5.57;;;3.05;;
77246;SDS011;66279;42.820;23.374;2023-04-24T03:10:39;4.05;;;3.00;;
77246;SDS011;66279;42.820;23.374;2023-04-24T03:13:05;3.67;;;3.00;;
77246;SDS011;66279;42.820;23.374;2023-04-24T03:15:31;4.65;;;3.40;;
77246;SDS011;66279;42.820;23.374;2023-04-24T03:17:56;4.32;;;3.13;;
77246;SDS011;66279;42.820;23.374;2023-04-24T03:20:22;5.32;;;3.45;;
77246;SDS011;66279;42.820;23.374;2023-04-24T03:22:47;5.15;;;3.25;;
77246;SDS011;66279;42.820;23.374;2023-04-24T03:25:13;3.92;;;3.20;;
77246;SDS011;66279;42.820;23.374;2023-04-24T03:27:38;5.53;;;3.35;;
77246;SDS011;66279;42.820;23.374;2023-04-24T03:30:05;4.13;;;3.30;;
77246;SDS011;66279;42.820;23.374;2023-04-24T03:32:34;4.13;;;3.22;;
77246;SDS011;66279;42.820;23.374;2023-04-24T03:34:59;4.63;;;3.33;;
77246;SDS011;66279;42.820;23.374;2023-04-24T03:37:25;4.72;;;3.17;;
77246;SDS011;66279;42.820;23.374;2023-04-24T03:39:51;4.93;;;3.63;;
77246;SDS011;66279;42.820;23.374;2023-04-24T03:42:17;3.85;;;3.17;;
77246;SDS011;66279;42.820;23.374;2023-04-24T03:44:43;7.93;;;3.58;;
77246;SDS011;66279;42.820;23.374;2023-04-24T03:47:08;4.43;;;3.35;;
77246;SDS011;66279;42.820;23.374;2023-04-24T03:49:34;4.63;;;3.17;;
77246;SDS011;66279;42.820;23.374;2023-04-24T03:52:00;6.30;;;3.60;;
77246;SDS011;66279;42.820;23.374;2023-04-24T03:54:26;6.47;;;3.47;;
77246;SDS011;66279;42.820;23.374;2023-04-24T03:56:52;5.70;;;3.97;;
77246;SDS011;66279;42.820;23.374;2023-04-24T03:59:17;5.03;;;3.60;;
77246;SDS011;66279;42.820;23.374;2023-04-24T04:01:43;5.53;;;4.10;;
77246;SDS011;66279;42.820;23.374;2023-04-24T04:04:09;5.13;;;4.05;;
77246;SDS011;66279;42.820;23.374;2023-04-24T04:06:34;6.57;;;4.55;;
77246;SDS011;66279;42.820;23.374;2023-04-24T04:09:01;4.55;;;3.65;;
77246;SDS011;66279;42.820;23.374;2023-04-24T04:11:27;5.43;;;4.20;;
77246;SDS011;66279;42.820;23.374;2023-04-24T04:13:52;5.35;;;3.42;;
77246;SDS011;66279;42.820;23.374;2023-04-24T04:16:18;5.95;;;4.05;;
77246;SDS011;66279;42.820;23.374;2023-04-24T04:18:44;7.78;;;3.80;;
77246;SDS011;66279;42.820;23.374;2023-04-24T04:21:10;5.72;;;3.97;;
77246;SDS011;66279;42.820;23.374;2023-04-24T04:23:35;5.95;;;3.72;;
77246;SDS011;66279;42.820;23.374;2023-04-24T04:26:01;5.63;;;4.03;;
77246;SDS011;66279;42.820;23.374;2023-04-24T04:28:28;5.63;;;4.38;;
77246;SDS011;66279;42.820;23.374;2023-04-24T04:30:55;5.47;;;4.00;;
77246;SDS011;66279;42.820;23.374;2023-04-24T04:33:23;5.20;;;3.53;;
77246;SDS011;66279;42.820;23.374;2023-04-24T04:35:49;10.05;;;4.03;;
77246;SDS011;66279;42.820;23.374;2023-04-24T04:38:17;4.63;;;3.30;;
77246;SDS011;66279;42.820;23.374;2023-04-24T04:40:45;4.28;;;3.42;;
77246;SDS011;66279;42.820;23.374;2023-04-24T04:43:11;14.65;;;4.30;;
77246;SDS011;66279;42.820;23.374;2023-04-24T04:45:38;4.20;;;3.08;;
77246;SDS011;66279;42.820;23.374;2023-04-24T04:48:05;6.10;;;3.95;;
77246;SDS011;66279;42.820;23.374;2023-04-24T04:50:33;4.22;;;3.50;;
77246;SDS011;66279;42.820;23.374;2023-04-24T04:52:58;4.85;;;3.83;;
77246;SDS011;66279;42.820;23.374;2023-04-24T04:55:24;5.45;;;3.42;;
77246;SDS011;66279;42.820;23.374;2023-04-24T04:57:50;4.50;;;3.92;;
77246;SDS011;66279;42.820;23.374;2023-04-24T05:00:16;10.95;;;5.00;;
77246;SDS011;66279;42.820;23.374;2023-04-24T05:02:42;8.50;;;5.60;;
77246;SDS011;66279;42.820;23.374;2023-04-24T05:05:08;9.10;;;5.53;;
77246;SDS011;66279;42.820;23.374;2023-04-24T05:07:34;7.30;;;5.10;;
77246;SDS011;66279;42.820;23.374;2023-04-24T05:09:59;5.93;;;4.40;;
77246;SDS011;66279;42.820;23.374;2023-04-24T05:12:25;7.40;;;4.50;;
77246;SDS011;66279;42.820;23.374;2023-04-24T05:14:51;8.48;;;4.78;;
77246;SDS011;66279;42.820;23.374;2023-04-24T05:17:16;9.73;;;4.63;;
77246;SDS011;66279;42.820;23.374;2023-04-24T05:19:42;7.40;;;4.78;;
77246;SDS011;66279;42.820;23.374;2023-04-24T05:22:07;7.65;;;4.15;;
77246;SDS011;66279;42.820;23.374;2023-04-24T05:24:34;8.10;;;3.85;;
77246;SDS011;66279;42.820;23.374;2023-04-24T05:27:00;6.10;;;3.85;;
77246;SDS011;66279;42.820;23.374;2023-04-24T05:29:27;5.78;;;4.55;;
77246;SDS011;66279;42.820;23.374;2023-04-24T05:31:53;9.98;;;4.43;;
77246;SDS011;66279;42.820;23.374;2023-04-24T05:34:19;7.10;;;5.13;;
77246;SDS011;66279;42.820;23.374;2023-04-24T05:36:44;7.32;;;4.03;;
77246;SDS011;66279;42.820;23.374;2023-04-24T05:39:10;8.93;;;4.38;;
77246;SDS011;66279;42.820;23.374;2023-04-24T05:41:35;9.75;;;4.70;;
77246;SDS011;66279;42.820;23.374;2023-04-24T05:44:01;4.80;;;3.92;;
77246;SDS011;66279;42.820;23.374;2023-04-24T05:46:26;8.25;;;4.00;;
77246;SDS011;66279;42.820;23.374;2023-04-24T05:48:52;7.38;;;4.30;;
77246;SDS011;66279;42.820;23.374;2023-04-24T05:51:17;9.73;;;4.68;;
77246;SDS011;66279;42.820;23.374;2023-04-24T05:53:43;6.50;;;4.05;;
77246;SDS011;66279;42.820;23.374;2023-04-24T05:56:08;7.88;;;3.63;;
77246;SDS011;66279;42.820;23.374;2023-04-24T05:58:34;7.93;;;3.75;;
77246;SDS011;66279;42.820;23.374;2023-04-24T06:00:59;7.20;;;3.45;;
77246;SDS011;66279;42.820;23.374;2023-04-24T06:03:26;6.18;;;3.70;;
77246;SDS011;66279;42.820;23.374;2023-04-24T06:05:52;5.18;;;3.33;;
77246;SDS011;66279;42.820;23.374;2023-04-24T06:08:18;5.18;;;3.50;;
77246;SDS011;66279;42.820;23.374;2023-04-24T06:10:44;5.03;;;3.33;;
77246;SDS011;66279;42.820;23.374;2023-04-24T06:13:10;5.18;;;3.55;;
77246;SDS011;66279;42.820;23.374;2023-04-24T06:15:36;5.63;;;3.20;;
77246;SDS011;66279;42.820;23.374;2023-04-24T06:18:02;4.78;;;2.70;;
77246;SDS011;66279;42.820;23.374;2023-04-24T06:20:27;5.22;;;3.00;;
77246;SDS011;66279;42.820;23.374;2023-04-24T06:22:53;3.55;;;2.80;;
77246;SDS011;66279;42.820;23.374;2023-04-24T06:25:19;5.53;;;2.75;;
77246;SDS011;66279;42.820;23.374;2023-04-24T06:27:44;3.60;;;2.88;;
77246;SDS011;66279;42.820;23.374;2023-04-24T06:30:10;7.18;;;2.83;;
77246;SDS011;66279;42.820;23.374;2023-04-24T06:32:36;5.88;;;3.10;;
77246;SDS011;66279;42.820;23.374;2023-04-24T06:35:01;5.82;;;3.03;;
77246;SDS011;66279;42.820;23.374;2023-04-24T06:37:27;5.28;;;2.63;;
77246;SDS011;66279;42.820;23.374;2023-04-24T06:39:52;5.40;;;2.22;;
77246;SDS011;66279;42.820;23.374;2023-04-24T06:42:18;3.50;;;2.50;;
77246;SDS011;66279;42.820;23.374;2023-04-24T06:44:46;4.40;;;2.38;;
77246;SDS011;66279;42.820;23.374;2023-04-24T06:47:11;5.45;;;2.10;;
77246;SDS011;66279;42.820;23.374;2023-04-24T06:49:38;8.00;;;2.80;;
77246;SDS011;66279;42.820;23.374;2023-04-24T06:52:04;3.70;;;1.90;;
77246;SDS011;66279;42.820;23.374;2023-04-24T06:54:31;4.85;;;2.88;;
77246;SDS011;66279;42.820;23.374;2023-04-24T06:56:57;3.40;;;2.05;;
77246;SDS011;66279;42.820;23.374;2023-04-24T06:59:24;3.60;;;2.60;;
77246;SDS011;66279;42.820;23.374;2023-04-24T07:01:50;4.75;;;2.50;;
77246;SDS011;66279;42.820;23.374;2023-04-24T07:04:18;4.50;;;2.50;;
77246;SDS011;66279;42.820;23.374;2023-04-24T07:06:47;3.60;;;2.70;;
77246;SDS011;66279;42.820;23.374;2023-04-24T07:09:14;4.00;;;2.88;;
77246;SDS011;66279;42.820;23.374;2023-04-24T07:11:41;3.58;;;2.28;;
77246;SDS011;66279;42.820;23.374;2023-04-24T07:14:07;3.72;;;2.13;;
77246;SDS011;66279;42.820;23.374;2023-04-24T07:16:33;4.18;;;2.50;;
77246;SDS011;66279;42.820;23.374;2023-04-24T07:18:59;2.80;;;2.15;;
77246;SDS011;66279;42.820;23.374;2023-04-24T07:21:25;2.92;;;2.20;;
77246;SDS011;66279;42.820;23.374;2023-04-24T07:23:51;4.65;;;2.55;;
77246;SDS011;66279;42.820;23.374;2023-04-24T07:26:16;3.78;;;2.40;;
77246;SDS011;66279;42.820;23.374;2023-04-24T07:28:42;5.03;;;2.53;;
77246;SDS011;66279;42.820;23.374;2023-04-24T07:31:08;4.15;;;2.35;;
77246;SDS011;66279;42.820;23.374;2023-04-24T07:33:33;2.90;;;2.08;;
77246;SDS011;66279;42.820;23.374;2023-04-24T07:35:59;4.60;;;2.08;;
77246;SDS011;66279;42.820;23.374;2023-04-24T07:38:25;7.25;;;2.70;;
77246;SDS011;66279;42.820;23.374;2023-04-24T07:40:51;3.03;;;1.98;;
77246;SDS011;66279;42.820;23.374;2023-04-24T07:43:16;4.63;;;2.28;;
77246;SDS011;66279;42.820;23.374;2023-04-24T07:45:43;4.80;;;2.55;;
77246;SDS011;66279;42.820;23.374;2023-04-24T07:48:09;4.13;;;2.20;;
77246;SDS011;66279;42.820;23.374;2023-04-24T07:50:34;4.35;;;1.83;;
77246;SDS011;66279;42.820;23.374;2023-04-24T07:53:01;4.65;;;2.25;;
77246;SDS011;66279;42.820;23.374;2023-04-24T07:55:27;3.58;;;1.95;;
77246;SDS011;66279;42.820;23.374;2023-04-24T07:57:52;3.10;;;1.98;;
77246;SDS011;66279;42.820;23.374;2023-04-24T08:00:18;3.33;;;2.00;;
77246;SDS011;66279;42.820;23.374;2023-04-24T08:02:44;4.35;;;2.55;;
77246;SDS011;66279;42.820;23.374;2023-04-24T08:05:09;16.20;;;3.85;;
77246;SDS011;66279;42.820;23.374;2023-04-24T08:07:35;7.22;;;2.20;;
77246;SDS011;66279;42.820;23.374;2023-04-24T08:10:01;4.30;;;2.40;;
77246;SDS011;66279;42.820;23.374;2023-04-24T08:12:28;3.80;;;2.03;;
77246;SDS011;66279;42.820;23.374;2023-04-24T08:14:54;4.35;;;2.22;;
77246;SDS011;66279;42.820;23.374;2023-04-24T08:17:19;3.00;;;2.30;;
77246;SDS011;66279;42.820;23.374;2023-04-24T08:19:45;3.45;;;2.35;;
77246;SDS011;66279;42.820;23.374;2023-04-24T08:22:16;3.67;;;2.20;;
77246;SDS011;66279;42.820;23.374;2023-04-24T08:24:42;4.07;;;2.20;;
77246;SDS011;66279;42.820;23.374;2023-04-24T08:27:09;4.10;;;2.30;;
77246;SDS011;66279;42.820;23.374;2023-04-24T08:29:35;3.05;;;2.33;;
77246;SDS011;66279;42.820;23.374;2023-04-24T08:32:01;4.25;;;2.75;;
77246;SDS011;66279;42.820;23.374;2023-04-24T08:34:27;2.83;;;2.40;;
77246;SDS011;66279;42.820;23.374;2023-04-24T08:36:52;3.50;;;2.30;;
77246;SDS011;66279;42.820;23.374;2023-04-24T08:39:18;3.03;;;2.10;;
77246;SDS011;66279;42.820;23.374;2023-04-24T08:41:44;6.20;;;2.22;;
77246;SDS011;66279;42.820;23.374;2023-04-24T08:44:10;3.47;;;2.35;;
77246;SDS011;66279;42.820;23.374;2023-04-24T08:46:36;5.03;;;3.00;;
77246;SDS011;66279;42.820;23.374;2023-04-24T08:49:02;2.28;;;1.83;;
77246;SDS011;66279;42.820;23.374;2023-04-24T08:51:29;3.67;;;2.25;;
77246;SDS011;66279;42.820;23.374;2023-04-24T08:53:56;3.63;;;2.25;;
77246;SDS011;66279;42.820;23.374;2023-04-24T08:56:22;3.67;;;2.10;;
77246;SDS011;66279;42.820;23.374;2023-04-24T08:58:50;2.78;;;2.45;;
77246;SDS011;66279;42.820;23.374;2023-04-24T09:01:17;3.83;;;2.03;;
77246;SDS011;66279;42.820;23.374;2023-04-24T09:03:45;3.75;;;2.45;;
77246;SDS011;66279;42.820;23.374;2023-04-24T09:06:13;3.88;;;2.15;;
77246;SDS011;66279;42.820;23.374;2023-04-24T09:08:39;2.85;;;2.17;;
77246;SDS011;66279;42.820;23.374;2023-04-24T09:26:08;4.55;;;2.55;;
77246;SDS011;66279;42.820;23.374;2023-04-24T09:28:35;3.55;;;2.30;;
77246;SDS011;66279;42.820;23.374;2023-04-24T09:31:03;2.80;;;2.05;;
77246;SDS011;66279;42.820;23.374;2023-04-24T09:33:29;4.10;;;2.30;;
77246;SDS011;66279;42.820;23.374;2023-04-24T09:35:54;2.85;;;2.28;;
77246;SDS011;66279;42.820;23.374;2023-04-24T09:38:30;3.28;;;2.00;;
77246;SDS011;66279;42.820;23.374;2023-04-24T09:40:58;3.42;;;2.00;;
77246;SDS011;66279;42.820;23.374;2023-04-24T09:43:26;3.15;;;2.00;;
77246;SDS011;66279;42.820;23.374;2023-04-24T09:45:53;3.78;;;2.20;;
77246;SDS011;66279;42.820;23.374;2023-04-24T09:48:34;3.55;;;2.15;;
77246;SDS011;66279;42.820;23.374;2023-04-24T09:51:03;2.92;;;2.03;;
77246;SDS011;66279;42.820;23.374;2023-04-24T09:53:31;3.47;;;2.10;;
77246;SDS011;66279;42.820;23.374;2023-04-24T09:56:07;2.67;;;2.10;;
77246;SDS011;66279;42.820;23.374;2023-04-24T09:58:34;2.60;;;1.98;;
77246;SDS011;66279;42.820;23.374;2023-04-24T10:01:01;3.20;;;2.08;;
77246;SDS011;66279;42.820;23.374;2023-04-24T10:03:29;3.75;;;2.17;;
77246;SDS011;66279;42.820;23.374;2023-04-24T10:05:58;3.58;;;2.58;;
77246;SDS011;66279;42.820;23.374;2023-04-24T10:08:33;3.53;;;2.20;;
77246;SDS011;66279;42.820;23.374;2023-04-24T10:10:59;2.70;;;2.00;;
77246;SDS011;66279;42.820;23.374;2023-04-24T10:13:25;4.70;;;2.22;;
77246;SDS011;66279;42.820;23.374;2023-04-24T10:15:51;5.47;;;2.22;;
77246;SDS011;66279;42.820;23.374;2023-04-24T10:18:16;3.30;;;2.10;;
77246;SDS011;66279;42.820;23.374;2023-04-24T10:20:43;3.60;;;2.10;;
77246;SDS011;66279;42.820;23.374;2023-04-24T10:23:10;2.58;;;2.00;;
77246;SDS011;66279;42.820;23.374;2023-04-24T10:25:36;3.38;;;2.05;;
77246;SDS011;66279;42.820;23.374;2023-04-24T10:28:02;3.08;;;1.83;;
77246;SDS011;66279;42.820;23.374;2023-04-24T10:30:32;3.15;;;1.85;;
77246;SDS011;66279;42.820;23.374;2023-04-24T10:33:06;3.95;;;1.92;;
77246;SDS011;66279;42.820;23.374;2023-04-24T10:35:37;2.63;;;1.80;;
77246;SDS011;66279;42.820;23.374;2023-04-24T10:38:09;5.47;;;2.20;;
77246;SDS011;66279;42.820;23.374;2023-04-24T10:40:37;4.65;;;2.08;;
77246;SDS011;66279;42.820;23.374;2023-04-24T10:43:03;3.42;;;2.15;;
77246;SDS011;66279;42.820;23.374;2023-04-24T10:45:36;4.18;;;2.10;;
77246;SDS011;66279;42.820;23.374;2023-04-24T10:48:09;3.28;;;2.17;;
77246;SDS011;66279;42.820;23.374;2023-04-24T10:50:48;3.97;;;2.38;;
77246;SDS011;66279;42.820;23.374;2023-04-24T10:53:24;3.10;;;2.03;;
77246;SDS011;66279;42.820;23.374;2023-04-24T10:58:24;2.38;;;1.90;;
77246;SDS011;66279;42.820;23.374;2023-04-24T11:01:01;3.75;;;2.30;;
77246;SDS011;66279;42.820;23.374;2023-04-24T11:03:27;2.15;;;1.73;;
77246;SDS011;66279;42.820;23.374;2023-04-24T11:05:56;8.32;;;2.67;;
77246;SDS011;66279;42.820;23.374;2023-04-24T11:11:00;2.92;;;2.00;;
77246;SDS011;66279;42.820;23.374;2023-04-24T11:19:07;2.33;;;1.92;;
77246;SDS011;66279;42.820;23.374;2023-04-24T11:27:12;2.03;;;1.65;;
77246;SDS011;66279;42.820;23.374;2023-04-24T11:30:16;3.53;;;1.85;;
77246;SDS011;66279;42.820;23.374;2023-04-24T11:35:05;3.65;;;1.90;;
77246;SDS011;66279;42.820;23.374;2023-04-24T11:40:02;2.65;;;1.85;;
77246;SDS011;66279;42.820;23.374;2023-04-24T11:44:52;2.22;;;2.00;;
77246;SDS011;66279;42.820;23.374;2023-04-24T11:47:26;2.58;;;1.40;;
77246;SDS011;66279;42.820;23.374;2023-04-24T11:49:53;3.63;;;1.90;;
77246;SDS011;66279;42.820;23.374;2023-04-24T11:52:19;3.13;;;1.83;;
77246;SDS011;66279;42.820;23.374;2023-04-24T11:54:48;4.55;;;1.90;;
77246;SDS011;66279;42.820;23.374;2023-04-24T11:57:15;1.88;;;1.60;;
77246;SDS011;66279;42.820;23.374;2023-04-24T11:59:41;2.30;;;1.45;;
77246;SDS011;66279;42.820;23.374;2023-04-24T12:02:13;1.98;;;1.60;;
77246;SDS011;66279;42.820;23.374;2023-04-24T12:04:48;2.38;;;2.10;;
77246;SDS011;66279;42.820;23.374;2023-04-24T12:07:14;2.30;;;1.52;;
77246;SDS011;66279;42.820;23.374;2023-04-24T12:09:59;1.65;;;1.23;;
77246;SDS011;66279;42.820;23.374;2023-04-24T12:12:28;6.32;;;3.45;;
77246;SDS011;66279;42.820;23.374;2023-04-24T14:40:16;2.35;;;2.03;;
77246;SDS011;66279;42.820;23.374;2023-04-24T14:42:41;5.07;;;2.25;;
77246;SDS011;66279;42.820;23.374;2023-04-24T14:45:07;3.20;;;1.60;;
77246;SDS011;66279;42.820;23.374;2023-04-24T14:47:33;4.18;;;1.88;;
77246;SDS011;66279;42.820;23.374;2023-04-24T14:49:59;2.95;;;2.25;;
77246;SDS011;66279;42.820;23.374;2023-04-24T14:52:24;4.22;;;2.78;;
77246;SDS011;66279;42.820;23.374;2023-04-24T14:59:53;3.13;;;1.60;;
77246;SDS011;66279;42.820;23.374;2023-04-24T15:09:49;3.30;;;2.45;;
